sensor_id;sensor_type;location;lat;lon;timestamp;pressure;altitude;pressure_sealevel;temperature;humidity
62025;BME280;47978;49.118;12.146;2023-01-30T00:01:19;98010.53;;;-1.38;83.49
62025;BME280;47978;49.118;12.146;2023-01-30T00:05:21;98014.13;;;-1.44;84.38
62025;BME280;47978;49.118;12.146;2023-01-30T00:09:24;98007.44;;;-1.42;84.03
62025;BME280;47978;49.118;12.146;2023-01-30T00:13:26;98002.03;;;-1.48;84.59
62025;BME280;47978;49.118;12.146;2023-01-30T00:17:27;97984.31;;;-1.51;84.38
62025;BME280;47978;49.118;12.146;2023-01-30T00:21:29;97988.59;;;-1.30;84.02
62025;BME280;47978;49.118;12.146;2023-01-30T00:25:32;97981.19;;;-1.16;83.73
62025;BME280;47978;49.118;12.146;2023-01-30T00:29:34;97982.03;;;-1.16;83.83
62025;BME280;47978;49.118;12.146;2023-01-30T00:33:36;97980.53;;;-1.11;83.90
62025;BME280;47978;49.118;12.146;2023-01-30T00:37:38;97957.94;;;-1.05;83.87
62025;BME280;47978;49.118;12.146;2023-01-30T00:41:41;97958.38;;;-1.08;83.69
62025;BME280;47978;49.118;12.146;2023-01-30T00:45:43;97947.50;;;-1.02;83.54
62025;BME280;47978;49.118;12.146;2023-01-30T00:49:45;97942.44;;;-0.98;83.04
62025;BME280;47978;49.118;12.146;2023-01-30T00:53:46;97948.69;;;-0.98;83.03
62025;BME280;47978;49.118;12.146;2023-01-30T00:57:49;97926.00;;;-1.03;83.09
62025;BME280;47978;49.118;12.146;2023-01-30T01:01:50;97923.72;;;-1.06;83.34
62025;BME280;47978;49.118;12.146;2023-01-30T01:05:52;97921.72;;;-1.18;83.71
62025;BME280;47978;49.118;12.146;2023-01-30T01:09:54;97925.50;;;-1.19;83.73
62025;BME280;47978;49.118;12.146;2023-01-30T01:13:57;97902.47;;;-1.09;82.75
62025;BME280;47978;49.118;12.146;2023-01-30T01:17:59;97912.69;;;-1.11;83.21
62025;BME280;47978;49.118;12.146;2023-01-30T01:22:00;97904.28;;;-1.03;82.93
62025;BME280;47978;49.118;12.146;2023-01-30T01:26:02;97915.59;;;-1.06;82.65
62025;BME280;47978;49.118;12.146;2023-01-30T01:30:05;97920.19;;;-1.07;82.90
62025;BME280;47978;49.118;12.146;2023-01-30T01:34:07;97917.84;;;-1.03;82.80
62025;BME280;47978;49.118;12.146;2023-01-30T01:38:09;97927.44;;;-1.01;82.57
62025;BME280;47978;49.118;12.146;2023-01-30T01:42:10;97934.94;;;-0.96;82.42
62025;BME280;47978;49.118;12.146;2023-01-30T01:46:17;97948.66;;;-0.91;82.37
62025;BME280;47978;49.118;12.146;2023-01-30T01:50:21;97958.84;;;-0.86;82.36
62025;BME280;47978;49.118;12.146;2023-01-30T01:54:26;97962.63;;;-0.87;81.85
62025;BME280;47978;49.118;12.146;2023-01-30T01:58:30;97942.38;;;-0.92;81.78
62025;BME280;47978;49.118;12.146;2023-01-30T02:02:37;97939.63;;;-0.85;81.76
62025;BME280;47978;49.118;12.146;2023-01-30T02:06:39;97923.47;;;-0.80;81.74
62025;BME280;47978;49.118;12.146;2023-01-30T02:10:44;97921.91;;;-0.87;81.83
62025;BME280;47978;49.118;12.146;2023-01-30T02:14:48;97926.06;;;-0.85;81.78
62025;BME280;47978;49.118;12.146;2023-01-30T02:18:52;97928.16;;;-0.87;81.78
62025;BME280;47978;49.118;12.146;2023-01-30T02:23:15;97911.50;;;-0.91;81.82
62025;BME280;47978;49.118;12.146;2023-01-30T02:27:33;97910.66;;;-0.91;81.78
62025;BME280;47978;49.118;12.146;2023-01-30T02:31:41;97910.16;;;-0.81;82.05
62025;BME280;47978;49.118;12.146;2023-01-30T02:35:46;97905.66;;;-0.94;81.90
62025;BME280;47978;49.118;12.146;2023-01-30T02:39:53;97894.16;;;-0.89;81.94
62025;BME280;47978;49.118;12.146;2023-01-30T02:44:02;97870.53;;;-0.89;81.83
62025;BME280;47978;49.118;12.146;2023-01-30T02:48:06;97865.47;;;-0.85;81.49
62025;BME280;47978;49.118;12.146;2023-01-30T02:52:10;97880.28;;;-0.81;81.26
62025;BME280;47978;49.118;12.146;2023-01-30T02:56:13;97875.84;;;-0.76;81.26
62025;BME280;47978;49.118;12.146;2023-01-30T03:00:15;97872.16;;;-0.81;81.28
62025;BME280;47978;49.118;12.146;2023-01-30T03:08:38;97867.72;;;-0.76;80.67
62025;BME280;47978;49.118;12.146;2023-01-30T03:12:43;97852.31;;;-0.82;80.53
62025;BME280;47978;49.118;12.146;2023-01-30T03:16:49;97811.34;;;-0.80;79.94
62025;BME280;47978;49.118;12.146;2023-01-30T03:20:53;97811.34;;;-0.80;80.34
62025;BME280;47978;49.118;12.146;2023-01-30T03:24:56;97772.78;;;-0.82;79.73
62025;BME280;47978;49.118;12.146;2023-01-30T03:28:57;97750.28;;;-0.89;80.03
62025;BME280;47978;49.118;12.146;2023-01-30T03:33:00;97817.97;;;-0.95;80.21
62025;BME280;47978;49.118;12.146;2023-01-30T03:37:01;97824.59;;;-1.09;80.97
62025;BME280;47978;49.118;12.146;2023-01-30T03:41:04;97832.44;;;-1.01;81.27
62025;BME280;47978;49.118;12.146;2023-01-30T03:45:07;97825.53;;;-0.97;81.20
62025;BME280;47978;49.118;12.146;2023-01-30T03:49:09;97823.09;;;-1.05;81.03
62025;BME280;47978;49.118;12.146;2023-01-30T03:53:10;97814.72;;;-1.03;81.36
62025;BME280;47978;49.118;12.146;2023-01-30T03:57:13;97784.25;;;-1.05;80.65
62025;BME280;47978;49.118;12.146;2023-01-30T04:01:15;97784.22;;;-0.99;81.42
62025;BME280;47978;49.118;12.146;2023-01-30T04:05:17;97759.19;;;-1.01;80.75
62025;BME280;47978;49.118;12.146;2023-01-30T04:09:19;97759.19;;;-1.01;81.30
62025;BME280;47978;49.118;12.146;2023-01-30T04:13:22;97738.00;;;-0.92;80.76
62025;BME280;47978;49.118;12.146;2023-01-30T04:17:24;97732.88;;;-0.82;80.44
62025;BME280;47978;49.118;12.146;2023-01-30T04:21:26;97737.22;;;-0.81;80.31
62025;BME280;47978;49.118;12.146;2023-01-30T04:25:27;97735.78;;;-0.83;79.97
62025;BME280;47978;49.118;12.146;2023-01-30T04:29:30;97741.75;;;-0.75;80.04
62025;BME280;47978;49.118;12.146;2023-01-30T04:33:32;97730.88;;;-0.75;80.41
62025;BME280;47978;49.118;12.146;2023-01-30T04:37:34;97709.41;;;-0.76;80.51
62025;BME280;47978;49.118;12.146;2023-01-30T04:41:36;97707.84;;;-0.84;80.50
62025;BME280;47978;49.118;12.146;2023-01-30T04:45:38;97708.50;;;-0.88;81.15
62025;BME280;47978;49.118;12.146;2023-01-30T04:49:42;97703.47;;;-0.85;81.37
62025;BME280;47978;49.118;12.146;2023-01-30T04:53:44;97707.69;;;-0.89;81.86
62025;BME280;47978;49.118;12.146;2023-01-30T04:57:45;97722.16;;;-0.95;81.76
62025;BME280;47978;49.118;12.146;2023-01-30T05:01:48;97702.47;;;-1.09;80.97
62025;BME280;47978;49.118;12.146;2023-01-30T05:05:50;97704.53;;;-1.04;81.51
62025;BME280;47978;49.118;12.146;2023-01-30T05:09:52;97705.19;;;-1.09;81.84
62025;BME280;47978;49.118;12.146;2023-01-30T05:13:53;97703.91;;;-1.06;81.56
62025;BME280;47978;49.118;12.146;2023-01-30T05:17:56;97704.16;;;-1.08;81.29
62025;BME280;47978;49.118;12.146;2023-01-30T05:21:58;97714.63;;;-1.11;81.43
62025;BME280;47978;49.118;12.146;2023-01-30T05:25:59;97707.34;;;-1.11;82.03
62025;BME280;47978;49.118;12.146;2023-01-30T05:30:01;97719.66;;;-1.15;82.43
62025;BME280;47978;49.118;12.146;2023-01-30T05:34:04;97725.03;;;-1.08;82.68
62025;BME280;47978;49.118;12.146;2023-01-30T05:38:06;97720.81;;;-1.04;83.11
62025;BME280;47978;49.118;12.146;2023-01-30T05:42:07;97721.03;;;-1.06;82.65
62025;BME280;47978;49.118;12.146;2023-01-30T05:46:09;97715.44;;;-0.93;82.44
62025;BME280;47978;49.118;12.146;2023-01-30T05:50:12;97708.03;;;-0.85;82.56
62025;BME280;47978;49.118;12.146;2023-01-30T05:54:14;97702.50;;;-0.91;82.68
62025;BME280;47978;49.118;12.146;2023-01-30T05:58:16;97689.75;;;-0.90;82.88
62025;BME280;47978;49.118;12.146;2023-01-30T06:02:17;97682.28;;;-0.95;83.86
62025;BME280;47978;49.118;12.146;2023-01-30T06:06:20;97683.66;;;-1.04;84.26
62025;BME280;47978;49.118;12.146;2023-01-30T06:10:22;97681.16;;;-1.05;85.06
62025;BME280;47978;49.118;12.146;2023-01-30T06:14:23;97695.16;;;-1.08;85.35
62025;BME280;47978;49.118;12.146;2023-01-30T06:18:25;97668.22;;;-1.22;85.82
62025;BME280;47978;49.118;12.146;2023-01-30T06:22:28;97663.81;;;-1.23;86.15
62025;BME280;47978;49.118;12.146;2023-01-30T06:26:29;97672.19;;;-1.24;86.55
62025;BME280;47978;49.118;12.146;2023-01-30T06:30:31;97662.53;;;-1.20;85.80
62025;BME280;47978;49.118;12.146;2023-01-30T06:34:32;97666.03;;;-1.13;86.03
62025;BME280;47978;49.118;12.146;2023-01-30T06:38:35;97664.44;;;-1.21;85.05
62025;BME280;47978;49.118;12.146;2023-01-30T06:42:36;97657.88;;;-1.13;85.04
62025;BME280;47978;49.118;12.146;2023-01-30T06:46:38;97658.25;;;-1.09;84.91
62025;BME280;47978;49.118;12.146;2023-01-30T06:50:39;97660.34;;;-1.11;84.78
62025;BME280;47978;49.118;12.146;2023-01-30T06:54:42;97655.06;;;-1.06;84.91
62025;BME280;47978;49.118;12.146;2023-01-30T06:58:44;97659.59;;;-1.00;84.44
62025;BME280;47978;49.118;12.146;2023-01-30T07:02:46;97649.81;;;-1.01;84.35
62025;BME280;47978;49.118;12.146;2023-01-30T07:06:47;97654.97;;;-1.00;83.90
62025;BME280;47978;49.118;12.146;2023-01-30T07:10:50;97649.19;;;-1.03;83.76
62025;BME280;47978;49.118;12.146;2023-01-30T07:14:51;97641.41;;;-1.00;83.44
62025;BME280;47978;49.118;12.146;2023-01-30T07:18:53;97644.78;;;-0.86;83.30
62025;BME280;47978;49.118;12.146;2023-01-30T07:22:54;97634.53;;;-0.84;83.13
62025;BME280;47978;49.118;12.146;2023-01-30T07:26:57;97632.22;;;-0.69;82.54
62025;BME280;47978;49.118;12.146;2023-01-30T07:30:59;97622.25;;;-0.56;82.29
62025;BME280;47978;49.118;12.146;2023-01-30T07:35:01;97616.06;;;-0.63;82.92
62025;BME280;47978;49.118;12.146;2023-01-30T07:39:06;97625.69;;;-0.49;83.02
62025;BME280;47978;49.118;12.146;2023-01-30T07:43:10;97628.53;;;-0.44;83.29
62025;BME280;47978;49.118;12.146;2023-01-30T07:47:12;97631.03;;;-0.42;83.56
62025;BME280;47978;49.118;12.146;2023-01-30T07:51:14;97629.28;;;-0.37;83.68
62025;BME280;47978;49.118;12.146;2023-01-30T07:55:15;97632.09;;;-0.32;83.58
62025;BME280;47978;49.118;12.146;2023-01-30T07:59:19;97626.13;;;-0.22;84.00
62025;BME280;47978;49.118;12.146;2023-01-30T08:03:20;97626.59;;;-0.13;84.07
62025;BME280;47978;49.118;12.146;2023-01-30T08:07:22;97637.59;;;0.04;83.50
62025;BME280;47978;49.118;12.146;2023-01-30T08:11:23;97629.09;;;0.00;83.78
62025;BME280;47978;49.118;12.146;2023-01-30T08:15:26;97629.78;;;-0.05;84.14
62025;BME280;47978;49.118;12.146;2023-01-30T08:19:28;97641.38;;;0.03;84.42
62025;BME280;47978;49.118;12.146;2023-01-30T08:23:30;97623.88;;;-0.02;85.15
62025;BME280;47978;49.118;12.146;2023-01-30T08:27:31;97622.47;;;-0.04;85.60
62025;BME280;47978;49.118;12.146;2023-01-30T08:31:34;97610.91;;;0.01;85.59
62025;BME280;47978;49.118;12.146;2023-01-30T08:35:35;97600.03;;;0.01;85.09
62025;BME280;47978;49.118;12.146;2023-01-30T08:39:37;97593.50;;;0.13;84.56
62025;BME280;47978;49.118;12.146;2023-01-30T08:43:39;97589.38;;;0.22;83.47
62025;BME280;47978;49.118;12.146;2023-01-30T08:47:42;97597.53;;;0.22;83.66
62025;BME280;47978;49.118;12.146;2023-01-30T08:51:44;97614.06;;;0.33;82.78
62025;BME280;47978;49.118;12.146;2023-01-30T08:55:48;97586.03;;;0.44;82.65
62025;BME280;47978;49.118;12.146;2023-01-30T08:59:49;97566.94;;;0.67;81.74
62025;BME280;47978;49.118;12.146;2023-01-30T09:03:52;97558.63;;;0.86;80.62
62025;BME280;47978;49.118;12.146;2023-01-30T09:07:54;97558.03;;;0.84;81.39
62025;BME280;47978;49.118;12.146;2023-01-30T09:11:55;97555.47;;;0.77;81.21
62025;BME280;47978;49.118;12.146;2023-01-30T09:15:57;97545.28;;;0.73;81.46
62025;BME280;47978;49.118;12.146;2023-01-30T09:20:00;97546.66;;;0.87;80.82
62025;BME280;47978;49.118;12.146;2023-01-30T09:24:01;97534.59;;;0.83;81.10
62025;BME280;47978;49.118;12.146;2023-01-30T09:28:03;97521.66;;;0.90;80.69
62025;BME280;47978;49.118;12.146;2023-01-30T09:32:05;97527.38;;;0.88;81.00
62025;BME280;47978;49.118;12.146;2023-01-30T09:36:08;97533.03;;;0.87;80.76
62025;BME280;47978;49.118;12.146;2023-01-30T09:40:12;97522.44;;;1.02;80.79
62025;BME280;47978;49.118;12.146;2023-01-30T09:44:28;97526.34;;;1.06;81.13
62025;BME280;47978;49.118;12.146;2023-01-30T09:48:35;97525.34;;;1.12;80.72
62025;BME280;47978;49.118;12.146;2023-01-30T09:52:50;97519.56;;;1.09;80.41
62025;BME280;47978;49.118;12.146;2023-01-30T09:56:55;97516.78;;;1.21;80.07
62025;BME280;47978;49.118;12.146;2023-01-30T10:00:59;97522.22;;;1.21;79.84
62025;BME280;47978;49.118;12.146;2023-01-30T10:05:04;97517.53;;;1.33;80.05
62025;BME280;47978;49.118;12.146;2023-01-30T10:09:07;97496.31;;;1.35;80.30
62025;BME280;47978;49.118;12.146;2023-01-30T10:13:14;97485.63;;;1.45;80.42
62025;BME280;47978;49.118;12.146;2023-01-30T10:17:26;97485.16;;;1.53;80.62
62025;BME280;47978;49.118;12.146;2023-01-30T10:21:35;97486.06;;;1.59;81.11
62025;BME280;47978;49.118;12.146;2023-01-30T10:25:43;97483.63;;;1.57;81.61
62025;BME280;47978;49.118;12.146;2023-01-30T10:29:46;97484.13;;;1.54;82.90
62025;BME280;47978;49.118;12.146;2023-01-30T10:33:51;97481.22;;;1.44;84.31
62025;BME280;47978;49.118;12.146;2023-01-30T10:37:57;97486.84;;;1.38;85.81
62025;BME280;47978;49.118;12.146;2023-01-30T10:42:03;97481.13;;;1.39;86.46
62025;BME280;47978;49.118;12.146;2023-01-30T10:46:11;97477.59;;;1.39;86.64
62025;BME280;47978;49.118;12.146;2023-01-30T10:50:18;97458.59;;;1.44;87.05
62025;BME280;47978;49.118;12.146;2023-01-30T10:54:22;97461.41;;;1.32;87.66
62025;BME280;47978;49.118;12.146;2023-01-30T10:58:29;97451.34;;;1.16;88.54
62025;BME280;47978;49.118;12.146;2023-01-30T11:02:34;97448.28;;;1.12;88.91
62025;BME280;47978;49.118;12.146;2023-01-30T11:06:40;97450.19;;;1.11;89.50
62025;BME280;47978;49.118;12.146;2023-01-30T11:10:42;97435.72;;;1.11;89.94
62025;BME280;47978;49.118;12.146;2023-01-30T11:14:52;97445.88;;;1.16;90.01
62025;BME280;47978;49.118;12.146;2023-01-30T11:18:54;97451.34;;;1.16;90.06
62025;BME280;47978;49.118;12.146;2023-01-30T11:23:23;97435.25;;;1.14;89.83
62025;BME280;47978;49.118;12.146;2023-01-30T11:27:27;97422.97;;;1.11;89.89
62025;BME280;47978;49.118;12.146;2023-01-30T11:31:30;97416.25;;;1.19;89.98
62025;BME280;47978;49.118;12.146;2023-01-30T11:35:43;97421.78;;;1.24;89.97
62025;BME280;47978;49.118;12.146;2023-01-30T11:39:51;97420.97;;;1.24;90.06
62025;BME280;47978;49.118;12.146;2023-01-30T11:43:58;97416.44;;;1.29;90.47
62025;BME280;47978;49.118;12.146;2023-01-30T11:48:02;97416.94;;;1.26;91.12
62025;BME280;47978;49.118;12.146;2023-01-30T11:52:05;97410.31;;;1.22;91.26
62025;BME280;47978;49.118;12.146;2023-01-30T11:56:11;97409.06;;;1.30;91.50
62025;BME280;47978;49.118;12.146;2023-01-30T12:00:15;97392.41;;;1.26;91.55
62025;BME280;47978;49.118;12.146;2023-01-30T12:04:20;97392.72;;;1.30;91.90
62025;BME280;47978;49.118;12.146;2023-01-30T12:08:24;97393.50;;;1.25;91.42
62025;BME280;47978;49.118;12.146;2023-01-30T12:12:42;97379.50;;;1.39;91.45
62025;BME280;47978;49.118;12.146;2023-01-30T12:16:49;97395.28;;;1.37;91.03
62025;BME280;47978;49.118;12.146;2023-01-30T12:20:55;97386.94;;;1.43;91.04
62025;BME280;47978;49.118;12.146;2023-01-30T12:24:59;97376.78;;;1.39;91.32
62025;BME280;47978;49.118;12.146;2023-01-30T12:29:02;97384.16;;;1.38;91.37
62025;BME280;47978;49.118;12.146;2023-01-30T12:33:09;97372.63;;;1.31;91.71
62025;BME280;47978;49.118;12.146;2023-01-30T12:37:21;97365.66;;;1.40;91.95
62025;BME280;47978;49.118;12.146;2023-01-30T12:41:29;97369.94;;;1.36;92.29
62025;BME280;47978;49.118;12.146;2023-01-30T12:45:33;97373.25;;;1.38;92.62
62025;BME280;47978;49.118;12.146;2023-01-30T12:49:39;97374.06;;;1.39;92.58
62025;BME280;47978;49.118;12.146;2023-01-30T12:53:49;97377.59;;;1.39;92.86
62025;BME280;47978;49.118;12.146;2023-01-30T12:57:56;97388.78;;;1.38;93.06
62025;BME280;47978;49.118;12.146;2023-01-30T13:02:06;97382.50;;;1.37;93.23
62025;BME280;47978;49.118;12.146;2023-01-30T13:06:18;97379.34;;;1.45;93.23
62025;BME280;47978;49.118;12.146;2023-01-30T13:10:24;97402.13;;;1.39;93.54
62025;BME280;47978;49.118;12.146;2023-01-30T13:14:32;97391.72;;;1.36;92.98
62025;BME280;47978;49.118;12.146;2023-01-30T13:18:38;97405.03;;;1.32;93.18
62025;BME280;47978;49.118;12.146;2023-01-30T13:22:43;97419.38;;;1.45;93.30
62025;BME280;47978;49.118;12.146;2023-01-30T13:26:49;97400.69;;;1.53;92.87
62025;BME280;47978;49.118;12.146;2023-01-30T13:30:52;97409.78;;;1.59;92.69
62025;BME280;47978;49.118;12.146;2023-01-30T13:34:55;97390.16;;;1.57;92.27
62025;BME280;47978;49.118;12.146;2023-01-30T13:39:00;97381.47;;;1.60;92.13
62025;BME280;47978;49.118;12.146;2023-01-30T13:43:05;97397.13;;;1.70;91.15
62025;BME280;47978;49.118;12.146;2023-01-30T13:47:16;97389.91;;;1.80;90.88
62025;BME280;47978;49.118;12.146;2023-01-30T13:51:31;97375.06;;;1.93;90.26
62025;BME280;47978;49.118;12.146;2023-01-30T13:55:38;97376.97;;;2.15;90.36
62025;BME280;47978;49.118;12.146;2023-01-30T13:59:51;97366.97;;;2.20;88.82
62025;BME280;47978;49.118;12.146;2023-01-30T14:04:03;97377.41;;;2.29;88.61
62025;BME280;47978;49.118;12.146;2023-01-30T14:08:25;97379.19;;;2.18;88.40
62025;BME280;47978;49.118;12.146;2023-01-30T14:12:29;97384.66;;;2.18;88.34
62025;BME280;47978;49.118;12.146;2023-01-30T14:16:42;97385.09;;;2.32;87.76
62025;BME280;47978;49.118;12.146;2023-01-30T14:20:45;97381.78;;;2.30;87.81
62025;BME280;47978;49.118;12.146;2023-01-30T14:29:06;97401.31;;;2.43;87.46
62025;BME280;47978;49.118;12.146;2023-01-30T14:37:43;97404.25;;;2.64;86.28
62025;BME280;47978;49.118;12.146;2023-01-30T14:41:45;97412.13;;;2.60;85.91
62025;BME280;47978;49.118;12.146;2023-01-30T14:46:11;97416.16;;;2.53;85.72
62025;BME280;47978;49.118;12.146;2023-01-30T14:50:32;97429.09;;;2.62;86.36
62025;BME280;47978;49.118;12.146;2023-01-30T14:54:37;97427.06;;;2.53;85.67
62025;BME280;47978;49.118;12.146;2023-01-30T14:58:49;97429.59;;;2.59;86.06
62025;BME280;47978;49.118;12.146;2023-01-30T15:02:51;97443.41;;;2.75;85.10
62025;BME280;47978;49.118;12.146;2023-01-30T15:06:55;97453.59;;;2.84;84.51
62025;BME280;47978;49.118;12.146;2023-01-30T15:11:02;97463.00;;;2.93;84.70
62025;BME280;47978;49.118;12.146;2023-01-30T15:15:08;97473.56;;;2.85;84.13
62025;BME280;47978;49.118;12.146;2023-01-30T15:19:18;97489.78;;;2.97;83.58
62025;BME280;47978;49.118;12.146;2023-01-30T15:23:30;97478.50;;;2.88;82.68
62025;BME280;47978;49.118;12.146;2023-01-30T15:27:46;97475.44;;;2.84;83.12
62025;BME280;47978;49.118;12.146;2023-01-30T15:31:54;97473.31;;;2.64;83.32
62025;BME280;47978;49.118;12.146;2023-01-30T15:35:55;97481.56;;;2.69;82.82
62025;BME280;47978;49.118;12.146;2023-01-30T15:44:35;97498.25;;;2.73;83.35
62025;BME280;47978;49.118;12.146;2023-01-30T15:48:42;97499.78;;;2.64;83.34
62025;BME280;47978;49.118;12.146;2023-01-30T15:52:47;97498.75;;;2.70;83.26
62025;BME280;47978;49.118;12.146;2023-01-30T15:56:50;97509.50;;;2.55;83.51
62025;BME280;47978;49.118;12.146;2023-01-30T16:00:54;97525.13;;;2.59;83.85
62025;BME280;47978;49.118;12.146;2023-01-30T16:05:12;97526.59;;;2.67;84.23
62025;BME280;47978;49.118;12.146;2023-01-30T16:09:17;97537.50;;;2.67;84.20
62025;BME280;47978;49.118;12.146;2023-01-30T16:13:20;97545.56;;;2.57;84.50
62025;BME280;47978;49.118;12.146;2023-01-30T16:17:23;97549.25;;;2.67;83.92
62025;BME280;47978;49.118;12.146;2023-01-30T16:21:26;97556.06;;;2.65;84.45
62025;BME280;47978;49.118;12.146;2023-01-30T16:25:29;97572.94;;;2.62;84.23
62025;BME280;47978;49.118;12.146;2023-01-30T16:29:31;97564.78;;;2.67;83.59
62025;BME280;47978;49.118;12.146;2023-01-30T16:33:35;97574.91;;;2.66;84.03
62025;BME280;47978;49.118;12.146;2023-01-30T16:37:37;97592.28;;;2.60;83.96
62025;BME280;47978;49.118;12.146;2023-01-30T16:41:39;97598.00;;;2.59;84.36
62025;BME280;47978;49.118;12.146;2023-01-30T16:45:50;97596.09;;;2.59;83.93
62025;BME280;47978;49.118;12.146;2023-01-30T16:50:00;97601.22;;;2.56;83.85
62025;BME280;47978;49.118;12.146;2023-01-30T16:54:02;97598.00;;;2.59;84.35
62025;BME280;47978;49.118;12.146;2023-01-30T16:58:04;97593.53;;;2.53;84.24
62025;BME280;47978;49.118;12.146;2023-01-30T17:02:06;97589.75;;;2.54;84.56
62025;BME280;47978;49.118;12.146;2023-01-30T17:06:15;97598.44;;;2.51;84.63
62025;BME280;47978;49.118;12.146;2023-01-30T17:14:40;97592.72;;;2.52;84.47
62025;BME280;47978;49.118;12.146;2023-01-30T17:18:44;97603.97;;;2.56;84.73
62025;BME280;47978;49.118;12.146;2023-01-30T17:22:48;97607.03;;;2.59;84.48
62025;BME280;47978;49.118;12.146;2023-01-30T17:26:51;97615.78;;;2.61;84.43
62025;BME280;47978;49.118;12.146;2023-01-30T17:30:53;97622.19;;;2.72;84.08
62025;BME280;47978;49.118;12.146;2023-01-30T17:34:55;97621.00;;;2.63;84.09
62025;BME280;47978;49.118;12.146;2023-01-30T17:38:58;97615.25;;;2.64;83.78
62025;BME280;47978;49.118;12.146;2023-01-30T17:42:59;97635.63;;;2.74;83.58
62025;BME280;47978;49.118;12.146;2023-01-30T17:47:01;97646.66;;;2.62;84.20
62025;BME280;47978;49.118;12.146;2023-01-30T17:51:03;97645.13;;;2.71;83.69
62025;BME280;47978;49.118;12.146;2023-01-30T17:55:06;97660.44;;;2.72;83.20
62025;BME280;47978;49.118;12.146;2023-01-30T17:59:11;97643.81;;;2.74;83.48
62025;BME280;47978;49.118;12.146;2023-01-30T18:03:12;97645.38;;;2.69;83.24
62025;BME280;47978;49.118;12.146;2023-01-30T18:07:14;97645.84;;;2.83;82.86
62025;BME280;47978;49.118;12.146;2023-01-30T18:11:17;97636.56;;;2.84;82.15
62025;BME280;47978;49.118;12.146;2023-01-30T18:15:18;97632.84;;;2.90;81.88
62025;BME280;47978;49.118;12.146;2023-01-30T18:19:20;97650.56;;;2.88;82.18
62025;BME280;47978;49.118;12.146;2023-01-30T18:23:22;97649.66;;;2.82;82.22
62025;BME280;47978;49.118;12.146;2023-01-30T18:27:24;97644.19;;;2.82;82.41
62025;BME280;47978;49.118;12.146;2023-01-30T18:31:27;97659.28;;;2.90;81.62
62025;BME280;47978;49.118;12.146;2023-01-30T18:35:29;97678.38;;;2.85;81.92
62025;BME280;47978;49.118;12.146;2023-01-30T18:39:31;97682.22;;;2.89;81.44
62025;BME280;47978;49.118;12.146;2023-01-30T18:43:34;97694.16;;;2.83;81.81
62025;BME280;47978;49.118;12.146;2023-01-30T18:47:35;97703.19;;;2.83;81.35
62025;BME280;47978;49.118;12.146;2023-01-30T18:51:37;97710.38;;;2.89;81.94
62025;BME280;47978;49.118;12.146;2023-01-30T18:55:39;97713.59;;;2.86;82.08
62025;BME280;47978;49.118;12.146;2023-01-30T18:59:49;97707.31;;;2.86;82.05
62025;BME280;47978;49.118;12.146;2023-01-30T19:03:52;97717.41;;;2.85;82.26
62025;BME280;47978;49.118;12.146;2023-01-30T19:07:54;97725.94;;;2.89;81.72
62025;BME280;47978;49.118;12.146;2023-01-30T19:11:55;97747.88;;;2.77;82.74
62025;BME280;47978;49.118;12.146;2023-01-30T19:15:59;97740.34;;;2.67;83.50
62025;BME280;47978;49.118;12.146;2023-01-30T19:20:00;97751.19;;;2.79;83.25
62025;BME280;47978;49.118;12.146;2023-01-30T19:24:02;97741.69;;;2.82;82.49
62025;BME280;47978;49.118;12.146;2023-01-30T19:28:03;97761.13;;;2.85;82.17
62025;BME280;47978;49.118;12.146;2023-01-30T19:32:06;97755.81;;;2.79;82.28
62025;BME280;47978;49.118;12.146;2023-01-30T19:36:08;97752.84;;;2.80;82.18
62025;BME280;47978;49.118;12.146;2023-01-30T19:40:10;97755.16;;;2.72;82.25
62025;BME280;47978;49.118;12.146;2023-01-30T19:44:12;97768.72;;;2.83;81.71
62025;BME280;47978;49.118;12.146;2023-01-30T19:48:15;97764.84;;;2.79;81.81
62025;BME280;47978;49.118;12.146;2023-01-30T19:52:16;97776.41;;;2.86;81.81
62025;BME280;47978;49.118;12.146;2023-01-30T19:56:18;97783.06;;;2.74;82.11
62025;BME280;47978;49.118;12.146;2023-01-30T20:00:20;97783.06;;;2.74;81.97
62025;BME280;47978;49.118;12.146;2023-01-30T20:04:23;97785.84;;;2.79;81.90
62025;BME280;47978;49.118;12.146;2023-01-30T20:08:24;97783.09;;;2.79;82.05
62025;BME280;47978;49.118;12.146;2023-01-30T20:12:33;97782.19;;;2.73;82.66
62025;BME280;47978;49.118;12.146;2023-01-30T20:16:34;97783.88;;;2.74;82.57
62025;BME280;47978;49.118;12.146;2023-01-30T20:20:37;97788.34;;;2.80;82.37
62025;BME280;47978;49.118;12.146;2023-01-30T20:24:39;97796.03;;;2.83;82.26
62025;BME280;47978;49.118;12.146;2023-01-30T20:28:41;97792.56;;;2.71;82.38
62025;BME280;47978;49.118;12.146;2023-01-30T20:32:42;97789.97;;;2.81;81.98
62025;BME280;47978;49.118;12.146;2023-01-30T20:36:45;97796.44;;;2.75;82.33
62025;BME280;47978;49.118;12.146;2023-01-30T20:40:47;97799.25;;;2.80;82.07
62025;BME280;47978;49.118;12.146;2023-01-30T20:44:48;97784.53;;;2.81;81.68
62025;BME280;47978;49.118;12.146;2023-01-30T20:48:50;97792.31;;;2.73;81.67
62025;BME280;47978;49.118;12.146;2023-01-30T20:52:56;97787.19;;;2.76;82.15
62025;BME280;47978;49.118;12.146;2023-01-30T20:56:57;97780.06;;;2.75;82.08
62025;BME280;47978;49.118;12.146;2023-01-30T21:01:05;97785.09;;;2.66;82.30
62025;BME280;47978;49.118;12.146;2023-01-30T21:05:07;97793.63;;;2.70;82.05
62025;BME280;47978;49.118;12.146;2023-01-30T21:09:10;97813.22;;;2.67;82.38
62025;BME280;47978;49.118;12.146;2023-01-30T21:13:12;97839.06;;;2.76;82.39
62025;BME280;47978;49.118;12.146;2023-01-30T21:17:13;97845.34;;;2.77;82.15
62025;BME280;47978;49.118;12.146;2023-01-30T21:21:15;97825.41;;;2.76;82.95
62025;BME280;47978;49.118;12.146;2023-01-30T21:25:19;97825.72;;;2.63;83.47
62025;BME280;47978;49.118;12.146;2023-01-30T21:29:21;97837.06;;;2.72;82.95
62025;BME280;47978;49.118;12.146;2023-01-30T21:33:23;97849.72;;;2.78;82.77
62025;BME280;47978;49.118;12.146;2023-01-30T21:37:24;97836.16;;;2.66;83.00
62025;BME280;47978;49.118;12.146;2023-01-30T21:41:28;97849.63;;;2.73;82.78
62025;BME280;47978;49.118;12.146;2023-01-30T21:45:32;97855.19;;;2.78;82.69